sensor_id;sensor_type;location;lat;lon;timestamp;P1;durP1;ratioP1;P2;durP2;ratioP2
3991;SDS011;2010;48.194;16.394;2023-04-21T00:01:55;27.70;;;21.03;;
3991;SDS011;2010;48.194;16.394;2023-04-21T00:04:26;26.67;;;21.13;;
3991;SDS011;2010;48.194;16.394;2023-04-21T00:06:56;25.77;;;21.27;;
3991;SDS011;2010;48.194;16.394;2023-04-21T00:09:29;27.67;;;19.60;;
3991;SDS011;2010;48.194;16.394;2023-04-21T00:12:01;25.73;;;18.97;;
3991;SDS011;2010;48.194;16.394;2023-04-21T00:14:33;26.47;;;20.00;;
3991;SDS011;2010;48.194;16.394;2023-04-21T00:17:10;23.83;;;18.33;;
3991;SDS011;2010;48.194;16.394;2023-04-21T00:19:39;24.70;;;19.43;;
3991;SDS011;2010;48.194;16.394;2023-04-21T00:22:09;25.83;;;18.77;;
3991;SDS011;2010;48.194;16.394;2023-04-21T00:24:41;26.20;;;18.50;;
3991;SDS011;2010;48.194;16.394;2023-04-21T00:27:11;21.40;;;18.30;;
3991;SDS011;2010;48.194;16.394;2023-04-21T00:29:46;24.77;;;18.80;;
3991;SDS011;2010;48.194;16.394;2023-04-21T00:32:18;20.60;;;16.90;;
3991;SDS011;2010;48.194;16.394;2023-04-21T00:34:47;27.43;;;18.77;;
3991;SDS011;2010;48.194;16.394;2023-04-21T00:37:19;25.87;;;18.60;;
3991;SDS011;2010;48.194;16.394;2023-04-21T00:39:50;32.17;;;19.87;;
3991;SDS011;2010;48.194;16.394;2023-04-21T00:42:20;22.63;;;17.40;;
3991;SDS011;2010;48.194;16.394;2023-04-21T00:45:00;23.57;;;17.17;;
3991;SDS011;2010;48.194;16.394;2023-04-21T00:47:38;24.20;;;17.73;;
3991;SDS011;2010;48.194;16.394;2023-04-21T00:50:10;22.13;;;16.87;;
3991;SDS011;2010;48.194;16.394;2023-04-21T00:52:48;22.73;;;18.03;;
3991;SDS011;2010;48.194;16.394;2023-04-21T00:55:19;25.33;;;18.30;;
3991;SDS011;2010;48.194;16.394;2023-04-21T00:57:49;22.50;;;16.50;;
3991;SDS011;2010;48.194;16.394;2023-04-21T01:00:20;24.37;;;19.03;;
3991;SDS011;2010;48.194;16.394;2023-04-21T01:02:49;24.17;;;17.23;;
3991;SDS011;2010;48.194;16.394;2023-04-21T01:05:23;21.10;;;17.73;;
3991;SDS011;2010;48.194;16.394;2023-04-21T01:07:57;21.80;;;16.90;;
3991;SDS011;2010;48.194;16.394;2023-04-21T01:10:26;21.63;;;17.37;;
3991;SDS011;2010;48.194;16.394;2023-04-21T01:13:10;22.57;;;16.10;;
3991;SDS011;2010;48.194;16.394;2023-04-21T01:15:53;22.33;;;17.33;;
3991;SDS011;2010;48.194;16.394;2023-04-21T01:18:29;21.23;;;17.00;;
3991;SDS011;2010;48.194;16.394;2023-04-21T01:21:05;22.43;;;16.33;;
3991;SDS011;2010;48.194;16.394;2023-04-21T01:23:37;19.97;;;16.87;;
3991;SDS011;2010;48.194;16.394;2023-04-21T01:26:16;21.60;;;17.03;;
3991;SDS011;2010;48.194;16.394;2023-04-21T01:28:58;20.33;;;16.90;;
3991;SDS011;2010;48.194;16.394;2023-04-21T01:31:27;22.03;;;17.80;;
3991;SDS011;2010;48.194;16.394;2023-04-21T01:33:57;20.47;;;16.80;;
3991;SDS011;2010;48.194;16.394;2023-04-21T01:36:26;27.30;;;17.23;;
3991;SDS011;2010;48.194;16.394;2023-04-21T01:39:03;23.73;;;17.40;;
3991;SDS011;2010;48.194;16.394;2023-04-21T01:41:32;24.37;;;17.83;;
3991;SDS011;2010;48.194;16.394;2023-04-21T01:44:07;21.87;;;17.40;;
3991;SDS011;2010;48.194;16.394;2023-04-21T01:46:44;23.20;;;18.27;;
3991;SDS011;2010;48.194;16.394;2023-04-21T01:49:18;21.23;;;17.30;;
3991;SDS011;2010;48.194;16.394;2023-04-21T01:51:47;23.00;;;17.87;;
3991;SDS011;2010;48.194;16.394;2023-04-21T01:54:21;21.77;;;17.80;;
3991;SDS011;2010;48.194;16.394;2023-04-21T01:56:55;22.47;;;18.53;;
3991;SDS011;2010;48.194;16.394;2023-04-21T01:59:32;25.77;;;19.63;;
3991;SDS011;2010;48.194;16.394;2023-04-21T02:02:05;26.23;;;18.60;;
3991;SDS011;2010;48.194;16.394;2023-04-21T02:04:34;25.37;;;19.73;;
3991;SDS011;2010;48.194;16.394;2023-04-21T02:07:05;26.13;;;19.73;;
3991;SDS011;2010;48.194;16.394;2023-04-21T02:09:41;26.90;;;19.70;;
3991;SDS011;2010;48.194;16.394;2023-04-21T02:12:18;27.10;;;18.60;;
3991;SDS011;2010;48.194;16.394;2023-04-21T02:14:48;25.70;;;18.97;;
3991;SDS011;2010;48.194;16.394;2023-04-21T02:17:20;24.70;;;18.83;;
3991;SDS011;2010;48.194;16.394;2023-04-21T02:19:50;25.60;;;19.50;;
3991;SDS011;2010;48.194;16.394;2023-04-21T02:22:21;28.50;;;20.73;;
3991;SDS011;2010;48.194;16.394;2023-04-21T02:24:57;29.20;;;21.27;;
3991;SDS011;2010;48.194;16.394;2023-04-21T02:27:28;23.43;;;19.80;;
3991;SDS011;2010;48.194;16.394;2023-04-21T02:30:00;27.47;;;21.77;;
3991;SDS011;2010;48.194;16.394;2023-04-21T02:32:30;25.53;;;19.97;;
3991;SDS011;2010;48.194;16.394;2023-04-21T02:35:00;29.23;;;20.80;;
3991;SDS011;2010;48.194;16.394;2023-04-21T02:37:29;26.87;;;22.07;;
3991;SDS011;2010;48.194;16.394;2023-04-21T02:40:02;26.50;;;21.50;;
3991;SDS011;2010;48.194;16.394;2023-04-21T02:42:32;28.73;;;20.90;;
3991;SDS011;2010;48.194;16.394;2023-04-21T02:45:04;28.57;;;21.50;;
3991;SDS011;2010;48.194;16.394;2023-04-21T02:47:34;31.23;;;21.37;;
3991;SDS011;2010;48.194;16.394;2023-04-21T02:50:02;28.90;;;22.20;;
3991;SDS011;2010;48.194;16.394;2023-04-21T02:52:34;22.77;;;19.57;;
3991;SDS011;2010;48.194;16.394;2023-04-21T02:55:18;27.97;;;21.33;;
3991;SDS011;2010;48.194;16.394;2023-04-21T02:57:52;26.27;;;19.43;;
3991;SDS011;2010;48.194;16.394;2023-04-21T03:00:23;25.43;;;20.73;;
3991;SDS011;2010;48.194;16.394;2023-04-21T03:02:54;24.80;;;20.20;;
3991;SDS011;2010;48.194;16.394;2023-04-21T03:05:25;24.73;;;20.60;;
3991;SDS011;2010;48.194;16.394;2023-04-21T03:07:59;27.80;;;21.53;;
3991;SDS011;2010;48.194;16.394;2023-04-21T03:10:37;32.87;;;21.87;;
3991;SDS011;2010;48.194;16.394;2023-04-21T03:13:08;27.73;;;21.80;;
3991;SDS011;2010;48.194;16.394;2023-04-21T03:15:45;24.77;;;20.97;;
3991;SDS011;2010;48.194;16.394;2023-04-21T03:18:15;28.50;;;22.13;;
3991;SDS011;2010;48.194;16.394;2023-04-21T03:20:48;24.63;;;21.37;;
3991;SDS011;2010;48.194;16.394;2023-04-21T03:23:27;36.60;;;30.00;;
3991;SDS011;2010;48.194;16.394;2023-04-21T03:25:59;37.97;;;30.00;;
3991;SDS011;2010;48.194;16.394;2023-04-21T03:28:31;34.30;;;27.40;;
3991;SDS011;2010;48.194;16.394;2023-04-21T03:31:02;33.77;;;26.13;;
3991;SDS011;2010;48.194;16.394;2023-04-21T03:33:32;32.30;;;24.40;;
3991;SDS011;2010;48.194;16.394;2023-04-21T03:36:25;33.23;;;24.33;;
3991;SDS011;2010;48.194;16.394;2023-04-21T03:38:55;26.80;;;21.47;;
3991;SDS011;2010;48.194;16.394;2023-04-21T03:41:49;30.20;;;24.37;;
3991;SDS011;2010;48.194;16.394;2023-04-21T03:44:18;29.33;;;20.80;;
3991;SDS011;2010;48.194;16.394;2023-04-21T03:46:51;27.90;;;22.60;;
3991;SDS011;2010;48.194;16.394;2023-04-21T03:49:24;29.87;;;21.17;;
3991;SDS011;2010;48.194;16.394;2023-04-21T03:51:58;29.57;;;21.27;;
3991;SDS011;2010;48.194;16.394;2023-04-21T03:54:31;28.30;;;22.10;;
3991;SDS011;2010;48.194;16.394;2023-04-21T03:57:03;35.37;;;22.43;;
3991;SDS011;2010;48.194;16.394;2023-04-21T03:59:33;26.57;;;22.23;;
3991;SDS011;2010;48.194;16.394;2023-04-21T04:02:02;30.43;;;23.00;;
3991;SDS011;2010;48.194;16.394;2023-04-21T04:04:35;32.30;;;22.20;;
3991;SDS011;2010;48.194;16.394;2023-04-21T04:07:12;28.50;;;23.03;;
3991;SDS011;2010;48.194;16.394;2023-04-21T04:09:46;26.73;;;21.93;;
3991;SDS011;2010;48.194;16.394;2023-04-21T04:12:20;30.20;;;23.73;;
3991;SDS011;2010;48.194;16.394;2023-04-21T04:14:53;37.73;;;23.37;;
3991;SDS011;2010;48.194;16.394;2023-04-21T04:17:22;33.77;;;23.23;;
3991;SDS011;2010;48.194;16.394;2023-04-21T04:19:55;29.40;;;23.13;;
3991;SDS011;2010;48.194;16.394;2023-04-21T04:22:23;29.27;;;22.37;;
3991;SDS011;2010;48.194;16.394;2023-04-21T04:24:53;27.90;;;21.77;;
3991;SDS011;2010;48.194;16.394;2023-04-21T04:27:32;32.27;;;22.73;;
3991;SDS011;2010;48.194;16.394;2023-04-21T04:30:02;29.40;;;22.50;;
3991;SDS011;2010;48.194;16.394;2023-04-21T04:32:31;31.20;;;23.30;;
3991;SDS011;2010;48.194;16.394;2023-04-21T04:35:01;26.97;;;22.87;;
3991;SDS011;2010;48.194;16.394;2023-04-21T04:37:30;26.47;;;21.87;;
3991;SDS011;2010;48.194;16.394;2023-04-21T04:40:01;30.13;;;21.53;;
3991;SDS011;2010;48.194;16.394;2023-04-21T04:42:43;28.53;;;22.87;;
3991;SDS011;2010;48.194;16.394;2023-04-21T04:45:24;30.60;;;23.07;;
3991;SDS011;2010;48.194;16.394;2023-04-21T04:48:05;28.03;;;21.33;;
3991;SDS011;2010;48.194;16.394;2023-04-21T04:50:43;30.90;;;22.93;;
3991;SDS011;2010;48.194;16.394;2023-04-21T04:53:11;30.50;;;23.43;;
3991;SDS011;2010;48.194;16.394;2023-04-21T04:55:51;30.27;;;23.00;;
3991;SDS011;2010;48.194;16.394;2023-04-21T04:58:26;31.27;;;22.63;;
3991;SDS011;2010;48.194;16.394;2023-04-21T05:00:58;30.83;;;23.10;;
3991;SDS011;2010;48.194;16.394;2023-04-21T05:03:38;33.63;;;22.70;;
3991;SDS011;2010;48.194;16.394;2023-04-21T05:06:09;26.40;;;20.33;;
3991;SDS011;2010;48.194;16.394;2023-04-21T05:08:41;32.57;;;23.20;;
3991;SDS011;2010;48.194;16.394;2023-04-21T05:11:14;31.83;;;22.73;;
3991;SDS011;2010;48.194;16.394;2023-04-21T05:13:47;28.40;;;22.70;;
3991;SDS011;2010;48.194;16.394;2023-04-21T05:16:24;29.73;;;21.37;;
3991;SDS011;2010;48.194;16.394;2023-04-21T05:18:59;27.37;;;23.03;;
3991;SDS011;2010;48.194;16.394;2023-04-21T05:21:37;32.17;;;22.10;;
3991;SDS011;2010;48.194;16.394;2023-04-21T05:24:07;28.47;;;22.53;;
3991;SDS011;2010;48.194;16.394;2023-04-21T05:26:39;35.57;;;23.33;;
3991;SDS011;2010;48.194;16.394;2023-04-21T05:29:21;31.37;;;22.70;;
3991;SDS011;2010;48.194;16.394;2023-04-21T05:31:50;31.23;;;23.90;;
3991;SDS011;2010;48.194;16.394;2023-04-21T05:34:20;35.10;;;24.37;;
3991;SDS011;2010;48.194;16.394;2023-04-21T05:37:01;31.83;;;24.33;;
3991;SDS011;2010;48.194;16.394;2023-04-21T05:39:32;29.43;;;22.80;;
3991;SDS011;2010;48.194;16.394;2023-04-21T05:42:02;36.47;;;24.53;;
3991;SDS011;2010;48.194;16.394;2023-04-21T05:44:38;40.73;;;25.07;;
3991;SDS011;2010;48.194;16.394;2023-04-21T05:47:06;33.43;;;24.17;;
3991;SDS011;2010;48.194;16.394;2023-04-21T05:49:38;31.60;;;25.30;;
3991;SDS011;2010;48.194;16.394;2023-04-21T05:52:10;31.03;;;24.93;;
3991;SDS011;2010;48.194;16.394;2023-04-21T05:54:50;31.03;;;23.93;;
3991;SDS011;2010;48.194;16.394;2023-04-21T05:57:23;32.50;;;24.20;;
3991;SDS011;2010;48.194;16.394;2023-04-21T05:59:55;34.97;;;24.87;;
3991;SDS011;2010;48.194;16.394;2023-04-21T06:02:24;30.73;;;23.30;;
3991;SDS011;2010;48.194;16.394;2023-04-21T06:04:56;36.10;;;23.83;;
3991;SDS011;2010;48.194;16.394;2023-04-21T06:07:25;30.43;;;24.00;;
3991;SDS011;2010;48.194;16.394;2023-04-21T06:09:55;31.07;;;24.10;;
3991;SDS011;2010;48.194;16.394;2023-04-21T06:12:31;30.33;;;23.90;;
3991;SDS011;2010;48.194;16.394;2023-04-21T06:15:09;30.00;;;23.93;;
3991;SDS011;2010;48.194;16.394;2023-04-21T06:17:40;30.63;;;23.83;;
3991;SDS011;2010;48.194;16.394;2023-04-21T06:20:10;33.57;;;24.57;;
3991;SDS011;2010;48.194;16.394;2023-04-21T06:22:47;31.70;;;24.97;;
3991;SDS011;2010;48.194;16.394;2023-04-21T06:25:21;31.17;;;24.93;;
3991;SDS011;2010;48.194;16.394;2023-04-21T06:27:53;35.80;;;25.77;;
3991;SDS011;2010;48.194;16.394;2023-04-21T06:30:29;36.77;;;25.20;;
3991;SDS011;2010;48.194;16.394;2023-04-21T06:32:59;28.70;;;22.63;;
3991;SDS011;2010;48.194;16.394;2023-04-21T06:35:39;29.50;;;23.83;;
3991;SDS011;2010;48.194;16.394;2023-04-21T06:38:16;30.60;;;23.73;;
3991;SDS011;2010;48.194;16.394;2023-04-21T06:40:47;30.07;;;22.10;;
3991;SDS011;2010;48.194;16.394;2023-04-21T06:43:18;34.03;;;24.17;;
3991;SDS011;2010;48.194;16.394;2023-04-21T06:45:53;36.70;;;22.77;;
3991;SDS011;2010;48.194;16.394;2023-04-21T06:48:23;26.60;;;19.53;;
3991;SDS011;2010;48.194;16.394;2023-04-21T06:51:00;24.53;;;19.00;;
3991;SDS011;2010;48.194;16.394;2023-04-21T06:53:31;22.50;;;17.30;;
3991;SDS011;2010;48.194;16.394;2023-04-21T06:56:16;21.73;;;15.53;;
3991;SDS011;2010;48.194;16.394;2023-04-21T06:58:49;23.53;;;16.07;;
3991;SDS011;2010;48.194;16.394;2023-04-21T07:01:24;21.87;;;16.03;;
3991;SDS011;2010;48.194;16.394;2023-04-21T07:03:52;25.57;;;15.20;;
3991;SDS011;2010;48.194;16.394;2023-04-21T07:06:25;20.93;;;16.30;;
3991;SDS011;2010;48.194;16.394;2023-04-21T07:08:58;25.10;;;17.93;;
3991;SDS011;2010;48.194;16.394;2023-04-21T07:11:28;22.00;;;16.40;;
3991;SDS011;2010;48.194;16.394;2023-04-21T07:13:56;21.83;;;16.37;;
3991;SDS011;2010;48.194;16.394;2023-04-21T07:16:41;22.87;;;15.47;;
3991;SDS011;2010;48.194;16.394;2023-04-21T07:19:12;18.50;;;14.60;;
3991;SDS011;2010;48.194;16.394;2023-04-21T07:21:43;16.77;;;14.97;;
3991;SDS011;2010;48.194;16.394;2023-04-21T07:24:19;19.20;;;15.33;;
3991;SDS011;2010;48.194;16.394;2023-04-21T07:26:50;20.93;;;14.97;;
3991;SDS011;2010;48.194;16.394;2023-04-21T07:29:29;20.50;;;14.93;;
3991;SDS011;2010;48.194;16.394;2023-04-21T07:32:00;17.93;;;13.90;;
3991;SDS011;2010;48.194;16.394;2023-04-21T07:34:29;19.90;;;12.30;;
3991;SDS011;2010;48.194;16.394;2023-04-21T07:37:08;19.10;;;12.60;;
3991;SDS011;2010;48.194;16.394;2023-04-21T07:39:37;17.73;;;12.87;;
3991;SDS011;2010;48.194;16.394;2023-04-21T07:42:05;19.43;;;13.20;;
3991;SDS011;2010;48.194;16.394;2023-04-21T07:44:36;21.17;;;13.53;;
3991;SDS011;2010;48.194;16.394;2023-04-21T07:47:08;21.70;;;14.13;;
3991;SDS011;2010;48.194;16.394;2023-04-21T07:49:44;19.67;;;13.80;;
3991;SDS011;2010;48.194;16.394;2023-04-21T07:52:18;18.17;;;13.87;;
3991;SDS011;2010;48.194;16.394;2023-04-21T07:54:46;18.33;;;13.03;;
3991;SDS011;2010;48.194;16.394;2023-04-21T07:57:20;21.00;;;12.60;;
3991;SDS011;2010;48.194;16.394;2023-04-21T07:59:51;17.53;;;11.63;;
3991;SDS011;2010;48.194;16.394;2023-04-21T08:02:25;15.03;;;10.83;;
3991;SDS011;2010;48.194;16.394;2023-04-21T08:04:56;15.13;;;10.23;;
3991;SDS011;2010;48.194;16.394;2023-04-21T08:07:26;18.47;;;10.27;;
3991;SDS011;2010;48.194;16.394;2023-04-21T08:09:54;16.43;;;9.93;;
3991;SDS011;2010;48.194;16.394;2023-04-21T08:12:27;14.30;;;11.30;;
3991;SDS011;2010;48.194;16.394;2023-04-21T08:14:56;13.07;;;10.30;;
3991;SDS011;2010;48.194;16.394;2023-04-21T08:17:32;17.57;;;10.50;;
3991;SDS011;2010;48.194;16.394;2023-04-21T08:20:09;16.00;;;10.10;;
3991;SDS011;2010;48.194;16.394;2023-04-21T08:22:42;20.87;;;10.53;;
3991;SDS011;2010;48.194;16.394;2023-04-21T08:25:15;12.80;;;11.20;;
3991;SDS011;2010;48.194;16.394;2023-04-21T08:27:48;16.87;;;11.37;;
3991;SDS011;2010;48.194;16.394;2023-04-21T08:30:17;13.80;;;10.07;;
3991;SDS011;2010;48.194;16.394;2023-04-21T08:33:09;14.73;;;9.43;;
3991;SDS011;2010;48.194;16.394;2023-04-21T08:35:40;17.60;;;10.10;;
3991;SDS011;2010;48.194;16.394;2023-04-21T08:38:28;11.17;;;8.90;;
3991;SDS011;2010;48.194;16.394;2023-04-21T08:40:58;9.70;;;8.13;;
3991;SDS011;2010;48.194;16.394;2023-04-21T08:43:28;10.87;;;7.53;;
3991;SDS011;2010;48.194;16.394;2023-04-21T08:45:59;12.30;;;6.80;;
3991;SDS011;2010;48.194;16.394;2023-04-21T08:48:42;10.00;;;6.40;;
3991;SDS011;2010;48.194;16.394;2023-04-21T08:51:17;7.53;;;6.47;;
3991;SDS011;2010;48.194;16.394;2023-04-21T08:53:51;10.80;;;5.97;;
3991;SDS011;2010;48.194;16.394;2023-04-21T08:56:31;10.80;;;5.50;;
3991;SDS011;2010;48.194;16.394;2023-04-21T08:59:00;10.50;;;5.60;;
3991;SDS011;2010;48.194;16.394;2023-04-21T09:04:44;9.20;;;6.17;;
3991;SDS011;2010;48.194;16.394;2023-04-21T09:07:29;7.60;;;5.90;;
3991;SDS011;2010;48.194;16.394;2023-04-21T09:10:03;9.30;;;6.03;;
3991;SDS011;2010;48.194;16.394;2023-04-21T09:12:33;7.97;;;6.00;;
3991;SDS011;2010;48.194;16.394;2023-04-21T09:15:11;9.97;;;6.90;;
3991;SDS011;2010;48.194;16.394;2023-04-21T09:17:43;11.50;;;7.03;;
3991;SDS011;2010;48.194;16.394;2023-04-21T09:20:19;8.00;;;5.90;;
3991;SDS011;2010;48.194;16.394;2023-04-21T09:22:52;9.00;;;5.93;;
3991;SDS011;2010;48.194;16.394;2023-04-21T09:25:23;9.77;;;5.60;;
3991;SDS011;2010;48.194;16.394;2023-04-21T09:27:53;9.83;;;5.87;;
3991;SDS011;2010;48.194;16.394;2023-04-21T09:30:22;10.43;;;5.20;;
3991;SDS011;2010;48.194;16.394;2023-04-21T09:32:57;5.97;;;3.73;;
3991;SDS011;2010;48.194;16.394;2023-04-21T09:35:31;7.03;;;3.97;;
3991;SDS011;2010;48.194;16.394;2023-04-21T09:38:20;6.83;;;3.67;;
3991;SDS011;2010;48.194;16.394;2023-04-21T09:40:56;6.50;;;4.00;;
3991;SDS011;2010;48.194;16.394;2023-04-21T09:43:28;8.30;;;4.40;;
3991;SDS011;2010;48.194;16.394;2023-04-21T09:45:56;11.17;;;4.07;;
3991;SDS011;2010;48.194;16.394;2023-04-21T09:48:29;11.23;;;4.10;;
3991;SDS011;2010;48.194;16.394;2023-04-21T09:51:11;9.37;;;3.83;;
3991;SDS011;2010;48.194;16.394;2023-04-21T09:54:11;9.40;;;3.90;;
3991;SDS011;2010;48.194;16.394;2023-04-21T09:56:53;6.57;;;3.67;;
3991;SDS011;2010;48.194;16.394;2023-04-21T09:59:25;9.17;;;3.90;;
3991;SDS011;2010;48.194;16.394;2023-04-21T10:01:57;8.93;;;3.70;;
3991;SDS011;2010;48.194;16.394;2023-04-21T10:04:31;10.17;;;3.87;;
3991;SDS011;2010;48.194;16.394;2023-04-21T10:07:06;5.37;;;4.27;;
3991;SDS011;2010;48.194;16.394;2023-04-21T10:09:40;14.07;;;3.70;;
3991;SDS011;2010;48.194;16.394;2023-04-21T10:12:13;11.23;;;4.33;;
3991;SDS011;2010;48.194;16.394;2023-04-21T10:14:45;7.70;;;4.00;;
3991;SDS011;2010;48.194;16.394;2023-04-21T10:17:17;5.23;;;3.63;;
3991;SDS011;2010;48.194;16.394;2023-04-21T10:19:53;8.50;;;4.00;;
3991;SDS011;2010;48.194;16.394;2023-04-21T10:22:36;9.33;;;3.97;;
3991;SDS011;2010;48.194;16.394;2023-04-21T10:25:08;6.30;;;3.30;;
3991;SDS011;2010;48.194;16.394;2023-04-21T10:27:42;7.40;;;4.17;;
3991;SDS011;2010;48.194;16.394;2023-04-21T10:30:16;6.83;;;3.60;;
3991;SDS011;2010;48.194;16.394;2023-04-21T10:33:00;5.93;;;3.90;;
3991;SDS011;2010;48.194;16.394;2023-04-21T10:38:53;8.70;;;3.67;;
3991;SDS011;2010;48.194;16.394;2023-04-21T10:41:25;9.27;;;3.70;;
3991;SDS011;2010;48.194;16.394;2023-04-21T10:43:56;4.13;;;3.17;;
3991;SDS011;2010;48.194;16.394;2023-04-21T10:46:32;8.80;;;3.63;;
3991;SDS011;2010;48.194;16.394;2023-04-21T10:49:07;8.93;;;4.10;;
3991;SDS011;2010;48.194;16.394;2023-04-21T10:55:03;7.57;;;4.03;;
3991;SDS011;2010;48.194;16.394;2023-04-21T10:57:34;6.57;;;3.30;;
3991;SDS011;2010;48.194;16.394;2023-04-21T11:00:15;6.93;;;4.30;;
3991;SDS011;2010;48.194;16.394;2023-04-21T11:02:54;7.43;;;3.43;;
3991;SDS011;2010;48.194;16.394;2023-04-21T11:05:30;7.93;;;3.60;;
3991;SDS011;2010;48.194;16.394;2023-04-21T11:08:06;7.73;;;3.90;;
3991;SDS011;2010;48.194;16.394;2023-04-21T11:13:37;5.07;;;3.33;;
3991;SDS011;2010;48.194;16.394;2023-04-21T11:16:14;12.00;;;4.07;;
3991;SDS011;2010;48.194;16.394;2023-04-21T11:18:46;7.27;;;4.00;;
3991;SDS011;2010;48.194;16.394;2023-04-21T11:21:18;12.33;;;4.50;;
3991;SDS011;2010;48.194;16.394;2023-04-21T11:23:50;7.17;;;3.83;;
3991;SDS011;2010;48.194;16.394;2023-04-21T11:26:35;8.50;;;3.70;;
3991;SDS011;2010;48.194;16.394;2023-04-21T11:29:11;3.97;;;3.20;;
3991;SDS011;2010;48.194;16.394;2023-04-21T11:31:44;8.23;;;3.40;;
3991;SDS011;2010;48.194;16.394;2023-04-21T11:34:19;12.67;;;3.90;;
3991;SDS011;2010;48.194;16.394;2023-04-21T11:36:51;5.53;;;3.90;;
3991;SDS011;2010;48.194;16.394;2023-04-21T11:39:21;9.67;;;3.10;;
3991;SDS011;2010;48.194;16.394;2023-04-21T11:41:56;8.23;;;3.40;;
3991;SDS011;2010;48.194;16.394;2023-04-21T11:44:32;6.90;;;2.97;;
3991;SDS011;2010;48.194;16.394;2023-04-21T11:47:12;5.03;;;3.67;;
3991;SDS011;2010;48.194;16.394;2023-04-21T11:49:50;12.17;;;3.70;;
3991;SDS011;2010;48.194;16.394;2023-04-21T11:52:24;13.10;;;4.60;;
3991;SDS011;2010;48.194;16.394;2023-04-21T11:55:06;7.30;;;3.70;;
3991;SDS011;2010;48.194;16.394;2023-04-21T11:57:43;10.23;;;2.90;;
3991;SDS011;2010;48.194;16.394;2023-04-21T12:00:22;3.57;;;2.83;;
3991;SDS011;2010;48.194;16.394;2023-04-21T12:02:53;6.07;;;3.40;;
3991;SDS011;2010;48.194;16.394;2023-04-21T12:05:24;4.80;;;3.20;;
3991;SDS011;2010;48.194;16.394;2023-04-21T12:08:04;8.10;;;3.10;;
3991;SDS011;2010;48.194;16.394;2023-04-21T12:10:36;6.83;;;2.97;;
3991;SDS011;2010;48.194;16.394;2023-04-21T12:13:10;11.63;;;3.83;;
3991;SDS011;2010;48.194;16.394;2023-04-21T12:15:42;8.30;;;3.43;;
3991;SDS011;2010;48.194;16.394;2023-04-21T12:18:12;4.07;;;3.20;;
3991;SDS011;2010;48.194;16.394;2023-04-21T12:20:50;10.20;;;4.07;;
3991;SDS011;2010;48.194;16.394;2023-04-21T12:23:22;8.07;;;3.23;;
3991;SDS011;2010;48.194;16.394;2023-04-21T12:25:51;13.53;;;3.30;;
3991;SDS011;2010;48.194;16.394;2023-04-21T12:28:25;10.37;;;3.47;;
3991;SDS011;2010;48.194;16.394;2023-04-21T12:31:05;8.00;;;3.47;;
3991;SDS011;2010;48.194;16.394;2023-04-21T12:33:41;9.87;;;3.63;;
3991;SDS011;2010;48.194;16.394;2023-04-21T12:36:14;7.03;;;3.30;;
3991;SDS011;2010;48.194;16.394;2023-04-21T12:38:48;5.83;;;3.40;;
3991;SDS011;2010;48.194;16.394;2023-04-21T12:41:21;7.43;;;3.20;;
3991;SDS011;2010;48.194;16.394;2023-04-21T12:43:53;6.80;;;3.20;;
3991;SDS011;2010;48.194;16.394;2023-04-21T12:46:24;5.30;;;3.17;;
3991;SDS011;2010;48.194;16.394;2023-04-21T12:48:53;6.97;;;4.10;;
3991;SDS011;2010;48.194;16.394;2023-04-21T12:51:25;9.67;;;3.57;;
3991;SDS011;2010;48.194;16.394;2023-04-21T12:53:57;10.27;;;3.40;;
3991;SDS011;2010;48.194;16.394;2023-04-21T12:56:29;7.03;;;3.27;;
3991;SDS011;2010;48.194;16.394;2023-04-21T12:59:00;7.23;;;3.10;;
3991;SDS011;2010;48.194;16.394;2023-04-21T13:01:38;8.10;;;3.37;;
3991;SDS011;2010;48.194;16.394;2023-04-21T13:04:19;7.10;;;3.10;;
3991;SDS011;2010;48.194;16.394;2023-04-21T13:06:53;4.13;;;2.90;;
3991;SDS011;2010;48.194;16.394;2023-04-21T13:09:25;6.37;;;2.83;;
3991;SDS011;2010;48.194;16.394;2023-04-21T13:12:00;3.90;;;2.70;;
3991;SDS011;2010;48.194;16.394;2023-04-21T13:14:43;8.03;;;2.80;;
3991;SDS011;2010;48.194;16.394;2023-04-21T13:17:12;5.00;;;3.10;;
3991;SDS011;2010;48.194;16.394;2023-04-21T13:19:45;9.10;;;2.83;;
3991;SDS011;2010;48.194;16.394;2023-04-21T13:22:16;6.50;;;3.50;;
3991;SDS011;2010;48.194;16.394;2023-04-21T13:24:47;5.00;;;2.83;;
3991;SDS011;2010;48.194;16.394;2023-04-21T13:27:16;8.87;;;3.37;;
3991;SDS011;2010;48.194;16.394;2023-04-21T13:29:58;7.87;;;3.27;;
3991;SDS011;2010;48.194;16.394;2023-04-21T13:32:30;3.93;;;2.70;;
3991;SDS011;2010;48.194;16.394;2023-04-21T13:35:04;6.57;;;3.00;;
3991;SDS011;2010;48.194;16.394;2023-04-21T13:37:35;5.23;;;3.20;;
3991;SDS011;2010;48.194;16.394;2023-04-21T13:40:08;6.83;;;3.20;;
3991;SDS011;2010;48.194;16.394;2023-04-21T13:42:41;4.80;;;3.03;;
3991;SDS011;2010;48.194;16.394;2023-04-21T13:45:17;6.23;;;3.00;;
3991;SDS011;2010;48.194;16.394;2023-04-21T13:47:53;12.23;;;3.33;;
3991;SDS011;2010;48.194;16.394;2023-04-21T13:50:32;6.73;;;3.63;;
3991;SDS011;2010;48.194;16.394;2023-04-21T13:53:01;6.03;;;3.33;;
3991;SDS011;2010;48.194;16.394;2023-04-21T13:55:32;10.23;;;3.47;;
3991;SDS011;2010;48.194;16.394;2023-04-21T13:58:02;7.80;;;3.07;;
3991;SDS011;2010;48.194;16.394;2023-04-21T14:00:39;6.20;;;3.27;;
3991;SDS011;2010;48.194;16.394;2023-04-21T14:03:10;5.53;;;2.93;;
3991;SDS011;2010;48.194;16.394;2023-04-21T14:05:44;12.40;;;3.43;;
3991;SDS011;2010;48.194;16.394;2023-04-21T14:08:13;7.13;;;3.63;;
3991;SDS011;2010;48.194;16.394;2023-04-21T14:10:43;10.37;;;3.80;;
3991;SDS011;2010;48.194;16.394;2023-04-21T14:13:20;7.33;;;3.50;;
3991;SDS011;2010;48.194;16.394;2023-04-21T14:16:18;3.10;;;2.80;;
3991;SDS011;2010;48.194;16.394;2023-04-21T14:18:57;6.07;;;3.20;;
3991;SDS011;2010;48.194;16.394;2023-04-21T14:21:35;6.17;;;2.97;;
3991;SDS011;2010;48.194;16.394;2023-04-21T14:24:04;10.03;;;3.57;;
3991;SDS011;2010;48.194;16.394;2023-04-21T14:26:33;3.53;;;2.57;;
3991;SDS011;2010;48.194;16.394;2023-04-21T14:29:02;5.03;;;3.27;;
3991;SDS011;2010;48.194;16.394;2023-04-21T14:31:34;4.40;;;2.90;;
3991;SDS011;2010;48.194;16.394;2023-04-21T14:34:02;6.10;;;3.50;;
3991;SDS011;2010;48.194;16.394;2023-04-21T14:36:33;5.23;;;2.60;;
3991;SDS011;2010;48.194;16.394;2023-04-21T14:39:01;5.63;;;3.40;;
3991;SDS011;2010;48.194;16.394;2023-04-21T14:41:32;6.33;;;3.20;;
3991;SDS011;2010;48.194;16.394;2023-04-21T14:44:03;6.17;;;3.80;;
3991;SDS011;2010;48.194;16.394;2023-04-21T14:46:34;5.20;;;3.40;;
3991;SDS011;2010;48.194;16.394;2023-04-21T14:49:03;10.63;;;3.87;;
3991;SDS011;2010;48.194;16.394;2023-04-21T14:51:40;3.57;;;2.90;;
3991;SDS011;2010;48.194;16.394;2023-04-21T14:54:08;5.60;;;4.47;;
3991;SDS011;2010;48.194;16.394;2023-04-21T14:56:39;6.67;;;4.10;;
3991;SDS011;2010;48.194;16.394;2023-04-21T14:59:07;8.83;;;3.47;;
3991;SDS011;2010;48.194;16.394;2023-04-21T15:01:59;4.90;;;3.23;;
3991;SDS011;2010;48.194;16.394;2023-04-21T15:04:34;4.17;;;3.40;;
3991;SDS011;2010;48.194;16.394;2023-04-21T15:07:10;6.00;;;3.40;;
3991;SDS011;2010;48.194;16.394;2023-04-21T15:09:41;9.03;;;4.00;;
3991;SDS011;2010;48.194;16.394;2023-04-21T15:12:12;7.63;;;3.23;;
3991;SDS011;2010;48.194;16.394;2023-04-21T15:14:52;4.87;;;3.37;;
3991;SDS011;2010;48.194;16.394;2023-04-21T15:17:31;9.93;;;3.80;;
3991;SDS011;2010;48.194;16.394;2023-04-21T15:19:59;4.90;;;3.00;;
3991;SDS011;2010;48.194;16.394;2023-04-21T15:22:29;9.10;;;4.30;;
3991;SDS011;2010;48.194;16.394;2023-04-21T15:24:57;5.23;;;3.00;;
3991;SDS011;2010;48.194;16.394;2023-04-21T15:27:29;4.37;;;3.30;;
3991;SDS011;2010;48.194;16.394;2023-04-21T15:29:59;4.10;;;3.50;;
3991;SDS011;2010;48.194;16.394;2023-04-21T15:32:44;3.87;;;3.57;;
3991;SDS011;2010;48.194;16.394;2023-04-21T15:35:17;4.50;;;3.00;;
3991;SDS011;2010;48.194;16.394;2023-04-21T15:37:51;4.07;;;3.13;;